sensor_id;sensor_type;location;lat;lon;timestamp;P1;durP1;ratioP1;P2;durP2;ratioP2
61915;SDS011;47868;51.326;6.550;2023-05-07T00:01:56;7.38;;;5.20;;
61915;SDS011;47868;51.326;6.550;2023-05-07T00:04:22;7.03;;;4.60;;
61915;SDS011;47868;51.326;6.550;2023-05-07T00:06:48;6.47;;;5.18;;
61915;SDS011;47868;51.326;6.550;2023-05-07T00:09:14;5.72;;;5.10;;
61915;SDS011;47868;51.326;6.550;2023-05-07T00:11:41;7.05;;;4.68;;
61915;SDS011;47868;51.326;6.550;2023-05-07T00:14:07;7.15;;;5.10;;
61915;SDS011;47868;51.326;6.550;2023-05-07T00:16:33;6.75;;;5.00;;
61915;SDS011;47868;51.326;6.550;2023-05-07T00:18:59;5.55;;;4.90;;
61915;SDS011;47868;51.326;6.550;2023-05-07T00:21:25;8.68;;;5.40;;
61915;SDS011;47868;51.326;6.550;2023-05-07T00:23:52;7.70;;;5.68;;
61915;SDS011;47868;51.326;6.550;2023-05-07T00:26:18;5.88;;;5.03;;
61915;SDS011;47868;51.326;6.550;2023-05-07T00:28:44;6.03;;;5.07;;
61915;SDS011;47868;51.326;6.550;2023-05-07T00:31:10;6.72;;;5.28;;
61915;SDS011;47868;51.326;6.550;2023-05-07T00:33:36;6.72;;;5.20;;
61915;SDS011;47868;51.326;6.550;2023-05-07T00:36:02;6.50;;;4.53;;
61915;SDS011;47868;51.326;6.550;2023-05-07T00:38:29;6.00;;;4.97;;
61915;SDS011;47868;51.326;6.550;2023-05-07T00:40:55;5.13;;;4.72;;
61915;SDS011;47868;51.326;6.550;2023-05-07T00:43:21;6.28;;;4.60;;
61915;SDS011;47868;51.326;6.550;2023-05-07T00:45:47;6.88;;;4.85;;
61915;SDS011;47868;51.326;6.550;2023-05-07T00:48:13;5.95;;;5.35;;
61915;SDS011;47868;51.326;6.550;2023-05-07T00:50:39;9.77;;;4.88;;
61915;SDS011;47868;51.326;6.550;2023-05-07T00:53:05;5.38;;;4.88;;
61915;SDS011;47868;51.326;6.550;2023-05-07T00:55:32;7.47;;;5.13;;
61915;SDS011;47868;51.326;6.550;2023-05-07T00:57:58;6.50;;;5.05;;
61915;SDS011;47868;51.326;6.550;2023-05-07T01:00:24;6.30;;;4.95;;
61915;SDS011;47868;51.326;6.550;2023-05-07T01:02:50;6.55;;;5.18;;
61915;SDS011;47868;51.326;6.550;2023-05-07T01:05:17;5.65;;;4.88;;
61915;SDS011;47868;51.326;6.550;2023-05-07T01:07:44;5.50;;;4.88;;
61915;SDS011;47868;51.326;6.550;2023-05-07T01:10:11;6.43;;;5.05;;
61915;SDS011;47868;51.326;6.550;2023-05-07T01:12:37;6.43;;;5.00;;
61915;SDS011;47868;51.326;6.550;2023-05-07T01:15:05;5.75;;;5.07;;
61915;SDS011;47868;51.326;6.550;2023-05-07T01:17:38;6.90;;;5.90;;
61915;SDS011;47868;51.326;6.550;2023-05-07T01:20:05;8.82;;;5.93;;
61915;SDS011;47868;51.326;6.550;2023-05-07T01:22:32;8.32;;;5.68;;
61915;SDS011;47868;51.326;6.550;2023-05-07T01:24:58;5.88;;;5.15;;
61915;SDS011;47868;51.326;6.550;2023-05-07T01:27:26;6.50;;;5.30;;
61915;SDS011;47868;51.326;6.550;2023-05-07T01:29:52;7.70;;;5.45;;
61915;SDS011;47868;51.326;6.550;2023-05-07T01:32:22;6.65;;;5.10;;
61915;SDS011;47868;51.326;6.550;2023-05-07T01:34:50;7.70;;;5.30;;
61915;SDS011;47868;51.326;6.550;2023-05-07T01:37:17;7.22;;;5.38;;
61915;SDS011;47868;51.326;6.550;2023-05-07T01:39:43;12.60;;;5.55;;
61915;SDS011;47868;51.326;6.550;2023-05-07T01:42:10;7.10;;;5.55;;
61915;SDS011;47868;51.326;6.550;2023-05-07T01:44:36;7.45;;;5.95;;
61915;SDS011;47868;51.326;6.550;2023-05-07T01:47:02;6.40;;;5.90;;
61915;SDS011;47868;51.326;6.550;2023-05-07T01:49:28;6.40;;;5.80;;
61915;SDS011;47868;51.326;6.550;2023-05-07T01:51:55;9.10;;;6.25;;
61915;SDS011;47868;51.326;6.550;2023-05-07T01:54:25;10.38;;;6.38;;
61915;SDS011;47868;51.326;6.550;2023-05-07T01:56:52;7.03;;;6.32;;
61915;SDS011;47868;51.326;6.550;2023-05-07T01:59:18;7.05;;;5.93;;
61915;SDS011;47868;51.326;6.550;2023-05-07T02:01:44;7.03;;;6.30;;
61915;SDS011;47868;51.326;6.550;2023-05-07T02:04:10;7.32;;;6.13;;
61915;SDS011;47868;51.326;6.550;2023-05-07T02:06:36;7.95;;;6.03;;
61915;SDS011;47868;51.326;6.550;2023-05-07T02:09:02;9.73;;;6.38;;
61915;SDS011;47868;51.326;6.550;2023-05-07T02:11:28;6.85;;;6.25;;
61915;SDS011;47868;51.326;6.550;2023-05-07T02:13:54;9.15;;;6.60;;
61915;SDS011;47868;51.326;6.550;2023-05-07T02:16:22;7.80;;;5.90;;
61915;SDS011;47868;51.326;6.550;2023-05-07T02:18:48;7.00;;;6.30;;
61915;SDS011;47868;51.326;6.550;2023-05-07T02:21:14;12.07;;;6.28;;
61915;SDS011;47868;51.326;6.550;2023-05-07T02:23:40;6.55;;;5.40;;
61915;SDS011;47868;51.326;6.550;2023-05-07T02:26:06;6.72;;;6.00;;
61915;SDS011;47868;51.326;6.550;2023-05-07T02:28:32;7.28;;;6.32;;
61915;SDS011;47868;51.326;6.550;2023-05-07T02:31:01;8.07;;;5.35;;
61915;SDS011;47868;51.326;6.550;2023-05-07T02:33:27;8.07;;;6.18;;
61915;SDS011;47868;51.326;6.550;2023-05-07T02:35:53;6.38;;;5.80;;
61915;SDS011;47868;51.326;6.550;2023-05-07T02:38:19;8.25;;;5.47;;
61915;SDS011;47868;51.326;6.550;2023-05-07T02:40:45;6.43;;;5.70;;
61915;SDS011;47868;51.326;6.550;2023-05-07T02:43:11;6.50;;;5.90;;
61915;SDS011;47868;51.326;6.550;2023-05-07T02:45:37;5.95;;;5.40;;
61915;SDS011;47868;51.326;6.550;2023-05-07T02:48:04;7.35;;;6.20;;
61915;SDS011;47868;51.326;6.550;2023-05-07T02:50:31;6.45;;;5.53;;
61915;SDS011;47868;51.326;6.550;2023-05-07T02:52:57;5.97;;;5.40;;
61915;SDS011;47868;51.326;6.550;2023-05-07T02:55:23;6.75;;;5.85;;
61915;SDS011;47868;51.326;6.550;2023-05-07T02:57:49;6.25;;;5.47;;
61915;SDS011;47868;51.326;6.550;2023-05-07T03:00:16;5.72;;;5.13;;
61915;SDS011;47868;51.326;6.550;2023-05-07T03:02:43;7.53;;;5.30;;
61915;SDS011;47868;51.326;6.550;2023-05-07T03:05:09;5.70;;;5.20;;
61915;SDS011;47868;51.326;6.550;2023-05-07T03:07:35;8.93;;;5.63;;
61915;SDS011;47868;51.326;6.550;2023-05-07T03:10:01;6.47;;;5.40;;
61915;SDS011;47868;51.326;6.550;2023-05-07T03:12:27;8.82;;;5.32;;
61915;SDS011;47868;51.326;6.550;2023-05-07T03:14:53;8.55;;;6.00;;
61915;SDS011;47868;51.326;6.550;2023-05-07T03:17:20;5.85;;;5.28;;
61915;SDS011;47868;51.326;6.550;2023-05-07T03:19:46;7.55;;;5.78;;
61915;SDS011;47868;51.326;6.550;2023-05-07T03:22:12;8.65;;;5.72;;
61915;SDS011;47868;51.326;6.550;2023-05-07T03:24:38;6.63;;;5.00;;
61915;SDS011;47868;51.326;6.550;2023-05-07T03:27:04;8.13;;;5.18;;
61915;SDS011;47868;51.326;6.550;2023-05-07T03:29:30;5.78;;;5.15;;
61915;SDS011;47868;51.326;6.550;2023-05-07T03:31:56;8.75;;;5.07;;
61915;SDS011;47868;51.326;6.550;2023-05-07T03:34:22;7.43;;;5.63;;
61915;SDS011;47868;51.326;6.550;2023-05-07T03:36:48;8.45;;;5.68;;
61915;SDS011;47868;51.326;6.550;2023-05-07T03:39:14;6.53;;;5.30;;
61915;SDS011;47868;51.326;6.550;2023-05-07T03:41:40;5.65;;;5.15;;
61915;SDS011;47868;51.326;6.550;2023-05-07T03:44:06;7.35;;;5.53;;
61915;SDS011;47868;51.326;6.550;2023-05-07T03:46:33;7.18;;;5.13;;
61915;SDS011;47868;51.326;6.550;2023-05-07T03:48:59;9.30;;;6.10;;
61915;SDS011;47868;51.326;6.550;2023-05-07T03:51:25;5.93;;;5.32;;
61915;SDS011;47868;51.326;6.550;2023-05-07T03:53:51;5.60;;;5.10;;
61915;SDS011;47868;51.326;6.550;2023-05-07T03:56:18;6.88;;;6.15;;
61915;SDS011;47868;51.326;6.550;2023-05-07T03:58:44;8.20;;;5.75;;
61915;SDS011;47868;51.326;6.550;2023-05-07T04:01:10;7.18;;;5.50;;
61915;SDS011;47868;51.326;6.550;2023-05-07T04:03:37;5.53;;;5.03;;
61915;SDS011;47868;51.326;6.550;2023-05-07T04:06:03;5.90;;;5.00;;
61915;SDS011;47868;51.326;6.550;2023-05-07T04:08:29;7.57;;;5.03;;
61915;SDS011;47868;51.326;6.550;2023-05-07T04:10:58;6.28;;;5.63;;
61915;SDS011;47868;51.326;6.550;2023-05-07T04:13:24;5.57;;;4.57;;
61915;SDS011;47868;51.326;6.550;2023-05-07T04:15:54;6.90;;;5.07;;
61915;SDS011;47868;51.326;6.550;2023-05-07T04:18:20;5.55;;;4.90;;
61915;SDS011;47868;51.326;6.550;2023-05-07T04:20:47;6.97;;;5.18;;
61915;SDS011;47868;51.326;6.550;2023-05-07T04:23:14;5.20;;;4.60;;
61915;SDS011;47868;51.326;6.550;2023-05-07T04:25:40;5.65;;;4.97;;
61915;SDS011;47868;51.326;6.550;2023-05-07T04:28:06;9.35;;;5.03;;
61915;SDS011;47868;51.326;6.550;2023-05-07T04:30:32;4.90;;;4.50;;
61915;SDS011;47868;51.326;6.550;2023-05-07T04:32:58;6.13;;;4.65;;
61915;SDS011;47868;51.326;6.550;2023-05-07T04:35:24;5.20;;;4.38;;
61915;SDS011;47868;51.326;6.550;2023-05-07T04:37:50;6.05;;;4.40;;
61915;SDS011;47868;51.326;6.550;2023-05-07T04:40:16;6.85;;;4.78;;
61915;SDS011;47868;51.326;6.550;2023-05-07T04:42:42;6.65;;;4.07;;
61915;SDS011;47868;51.326;6.550;2023-05-07T04:45:08;4.28;;;3.85;;
61915;SDS011;47868;51.326;6.550;2023-05-07T04:47:35;5.57;;;4.38;;
61915;SDS011;47868;51.326;6.550;2023-05-07T04:50:01;4.72;;;3.78;;
61915;SDS011;47868;51.326;6.550;2023-05-07T04:52:27;3.97;;;3.60;;
61915;SDS011;47868;51.326;6.550;2023-05-07T04:54:53;6.57;;;4.13;;
61915;SDS011;47868;51.326;6.550;2023-05-07T04:57:19;6.18;;;3.90;;
61915;SDS011;47868;51.326;6.550;2023-05-07T04:59:45;6.30;;;4.10;;
61915;SDS011;47868;51.326;6.550;2023-05-07T05:02:11;4.65;;;3.97;;
61915;SDS011;47868;51.326;6.550;2023-05-07T05:04:37;4.38;;;4.05;;
61915;SDS011;47868;51.326;6.550;2023-05-07T05:07:03;5.05;;;3.67;;
61915;SDS011;47868;51.326;6.550;2023-05-07T05:09:29;5.88;;;3.42;;
61915;SDS011;47868;51.326;6.550;2023-05-07T05:11:55;4.95;;;3.90;;
61915;SDS011;47868;51.326;6.550;2023-05-07T05:14:21;5.75;;;3.65;;
61915;SDS011;47868;51.326;6.550;2023-05-07T05:16:47;6.95;;;3.33;;
61915;SDS011;47868;51.326;6.550;2023-05-07T05:19:13;5.25;;;3.80;;
61915;SDS011;47868;51.326;6.550;2023-05-07T05:21:39;5.72;;;4.00;;
61915;SDS011;47868;51.326;6.550;2023-05-07T05:24:05;5.03;;;3.95;;
61915;SDS011;47868;51.326;6.550;2023-05-07T05:26:32;7.45;;;3.90;;
61915;SDS011;47868;51.326;6.550;2023-05-07T05:28:58;4.90;;;3.80;;
61915;SDS011;47868;51.326;6.550;2023-05-07T05:31:23;4.85;;;3.78;;
61915;SDS011;47868;51.326;6.550;2023-05-07T05:33:49;5.60;;;4.05;;
61915;SDS011;47868;51.326;6.550;2023-05-07T05:36:16;5.32;;;4.70;;
61915;SDS011;47868;51.326;6.550;2023-05-07T05:38:42;5.72;;;3.47;;
61915;SDS011;47868;51.326;6.550;2023-05-07T05:41:08;5.55;;;3.88;;
61915;SDS011;47868;51.326;6.550;2023-05-07T05:43:34;4.28;;;3.92;;
61915;SDS011;47868;51.326;6.550;2023-05-07T05:46:01;5.10;;;4.30;;
61915;SDS011;47868;51.326;6.550;2023-05-07T05:48:28;3.97;;;3.40;;
61915;SDS011;47868;51.326;6.550;2023-05-07T05:50:54;4.47;;;3.60;;
61915;SDS011;47868;51.326;6.550;2023-05-07T05:53:20;4.47;;;3.42;;
61915;SDS011;47868;51.326;6.550;2023-05-07T05:55:46;6.53;;;3.67;;
61915;SDS011;47868;51.326;6.550;2023-05-07T05:58:12;4.20;;;3.65;;
61915;SDS011;47868;51.326;6.550;2023-05-07T06:00:40;5.53;;;3.83;;
61915;SDS011;47868;51.326;6.550;2023-05-07T06:03:06;6.22;;;3.53;;
61915;SDS011;47868;51.326;6.550;2023-05-07T06:05:32;6.45;;;3.50;;
61915;SDS011;47868;51.326;6.550;2023-05-07T06:07:57;5.30;;;4.20;;
61915;SDS011;47868;51.326;6.550;2023-05-07T06:10:23;4.60;;;4.00;;
61915;SDS011;47868;51.326;6.550;2023-05-07T06:12:50;5.72;;;4.00;;
61915;SDS011;47868;51.326;6.550;2023-05-07T06:15:16;7.70;;;4.15;;
61915;SDS011;47868;51.326;6.550;2023-05-07T06:17:42;4.57;;;3.50;;
61915;SDS011;47868;51.326;6.550;2023-05-07T06:20:08;4.00;;;3.60;;
61915;SDS011;47868;51.326;6.550;2023-05-07T06:22:34;4.70;;;3.33;;
61915;SDS011;47868;51.326;6.550;2023-05-07T06:25:00;3.58;;;3.28;;
61915;SDS011;47868;51.326;6.550;2023-05-07T06:27:26;3.50;;;3.20;;
61915;SDS011;47868;51.326;6.550;2023-05-07T06:29:53;4.45;;;3.42;;
61915;SDS011;47868;51.326;6.550;2023-05-07T06:32:19;6.68;;;3.45;;
61915;SDS011;47868;51.326;6.550;2023-05-07T06:34:45;3.67;;;3.10;;
61915;SDS011;47868;51.326;6.550;2023-05-07T06:37:11;5.07;;;3.38;;
61915;SDS011;47868;51.326;6.550;2023-05-07T06:39:37;3.25;;;2.92;;
61915;SDS011;47868;51.326;6.550;2023-05-07T06:42:03;3.55;;;2.97;;
61915;SDS011;47868;51.326;6.550;2023-05-07T06:44:29;3.50;;;3.20;;
61915;SDS011;47868;51.326;6.550;2023-05-07T06:46:56;3.67;;;2.88;;
61915;SDS011;47868;51.326;6.550;2023-05-07T06:49:22;4.55;;;3.35;;
61915;SDS011;47868;51.326;6.550;2023-05-07T06:51:48;3.15;;;2.85;;
61915;SDS011;47868;51.326;6.550;2023-05-07T06:54:14;4.03;;;2.75;;
61915;SDS011;47868;51.326;6.550;2023-05-07T06:56:40;4.90;;;2.67;;
61915;SDS011;47868;51.326;6.550;2023-05-07T06:59:06;3.83;;;2.72;;
61915;SDS011;47868;51.326;6.550;2023-05-07T07:01:32;3.15;;;2.38;;
61915;SDS011;47868;51.326;6.550;2023-05-07T07:03:58;4.78;;;2.38;;
61915;SDS011;47868;51.326;6.550;2023-05-07T07:06:25;2.58;;;2.30;;
61915;SDS011;47868;51.326;6.550;2023-05-07T07:08:53;2.65;;;2.45;;
61915;SDS011;47868;51.326;6.550;2023-05-07T07:11:19;3.03;;;2.65;;
61915;SDS011;47868;51.326;6.550;2023-05-07T07:13:45;2.70;;;2.47;;
61915;SDS011;47868;51.326;6.550;2023-05-07T07:16:11;4.43;;;2.88;;
61915;SDS011;47868;51.326;6.550;2023-05-07T07:18:37;2.75;;;2.42;;
61915;SDS011;47868;51.326;6.550;2023-05-07T07:21:03;3.08;;;2.78;;
61915;SDS011;47868;51.326;6.550;2023-05-07T07:23:29;3.53;;;3.03;;
61915;SDS011;47868;51.326;6.550;2023-05-07T07:25:55;3.83;;;2.80;;
61915;SDS011;47868;51.326;6.550;2023-05-07T07:28:21;4.82;;;2.78;;
61915;SDS011;47868;51.326;6.550;2023-05-07T07:30:47;2.60;;;2.40;;
61915;SDS011;47868;51.326;6.550;2023-05-07T07:33:13;4.25;;;3.00;;
61915;SDS011;47868;51.326;6.550;2023-05-07T07:35:39;2.65;;;2.38;;
61915;SDS011;47868;51.326;6.550;2023-05-07T07:38:05;3.65;;;2.60;;
61915;SDS011;47868;51.326;6.550;2023-05-07T07:40:31;3.35;;;2.60;;
61915;SDS011;47868;51.326;6.550;2023-05-07T07:42:57;4.03;;;3.35;;
61915;SDS011;47868;51.326;6.550;2023-05-07T07:45:24;3.42;;;2.88;;
61915;SDS011;47868;51.326;6.550;2023-05-07T07:47:50;3.63;;;2.40;;
61915;SDS011;47868;51.326;6.550;2023-05-07T07:50:16;6.05;;;2.85;;
61915;SDS011;47868;51.326;6.550;2023-05-07T07:52:43;3.85;;;2.40;;
61915;SDS011;47868;51.326;6.550;2023-05-07T07:55:09;3.50;;;2.88;;
61915;SDS011;47868;51.326;6.550;2023-05-07T07:57:35;2.60;;;2.40;;
61915;SDS011;47868;51.326;6.550;2023-05-07T08:00:01;3.70;;;2.60;;
61915;SDS011;47868;51.326;6.550;2023-05-07T08:02:32;3.55;;;2.70;;
61915;SDS011;47868;51.326;6.550;2023-05-07T08:04:58;8.32;;;2.97;;
61915;SDS011;47868;51.326;6.550;2023-05-07T08:07:24;2.58;;;2.38;;
61915;SDS011;47868;51.326;6.550;2023-05-07T08:09:50;3.75;;;2.60;;
61915;SDS011;47868;51.326;6.550;2023-05-07T08:12:16;3.38;;;2.78;;
61915;SDS011;47868;51.326;6.550;2023-05-07T08:14:42;9.20;;;2.88;;
61915;SDS011;47868;51.326;6.550;2023-05-07T08:17:08;4.05;;;2.65;;
61915;SDS011;47868;51.326;6.550;2023-05-07T08:19:35;5.47;;;2.50;;
61915;SDS011;47868;51.326;6.550;2023-05-07T08:22:02;2.75;;;2.17;;
61915;SDS011;47868;51.326;6.550;2023-05-07T08:24:29;5.03;;;2.20;;
61915;SDS011;47868;51.326;6.550;2023-05-07T08:26:55;3.92;;;2.58;;
61915;SDS011;47868;51.326;6.550;2023-05-07T08:29:21;2.63;;;2.40;;
61915;SDS011;47868;51.326;6.550;2023-05-07T08:31:47;5.78;;;2.70;;
61915;SDS011;47868;51.326;6.550;2023-05-07T08:34:13;3.25;;;2.47;;
61915;SDS011;47868;51.326;6.550;2023-05-07T08:36:39;3.90;;;1.95;;
61915;SDS011;47868;51.326;6.550;2023-05-07T08:39:07;2.20;;;2.00;;
61915;SDS011;47868;51.326;6.550;2023-05-07T08:41:33;3.05;;;2.25;;
61915;SDS011;47868;51.326;6.550;2023-05-07T08:44:00;3.03;;;2.03;;
61915;SDS011;47868;51.326;6.550;2023-05-07T08:46:28;3.35;;;2.22;;
61915;SDS011;47868;51.326;6.550;2023-05-07T08:48:56;2.30;;;2.10;;
61915;SDS011;47868;51.326;6.550;2023-05-07T08:51:22;2.88;;;2.38;;
61915;SDS011;47868;51.326;6.550;2023-05-07T08:53:48;4.63;;;2.25;;
61915;SDS011;47868;51.326;6.550;2023-05-07T08:56:15;3.05;;;2.13;;
61915;SDS011;47868;51.326;6.550;2023-05-07T08:58:42;2.65;;;2.20;;
61915;SDS011;47868;51.326;6.550;2023-05-07T09:01:16;2.38;;;2.05;;
61915;SDS011;47868;51.326;6.550;2023-05-07T09:03:45;7.13;;;2.17;;
61915;SDS011;47868;51.326;6.550;2023-05-07T09:06:11;3.50;;;2.15;;
61915;SDS011;47868;51.326;6.550;2023-05-07T09:08:37;2.33;;;2.10;;
61915;SDS011;47868;51.326;6.550;2023-05-07T09:11:04;2.33;;;2.13;;
61915;SDS011;47868;51.326;6.550;2023-05-07T09:13:30;5.60;;;2.10;;
61915;SDS011;47868;51.326;6.550;2023-05-07T09:15:56;2.53;;;1.95;;
61915;SDS011;47868;51.326;6.550;2023-05-07T09:18:25;2.63;;;1.85;;
61915;SDS011;47868;51.326;6.550;2023-05-07T09:20:51;3.28;;;2.10;;
61915;SDS011;47868;51.326;6.550;2023-05-07T09:23:17;5.82;;;2.40;;
61915;SDS011;47868;51.326;6.550;2023-05-07T09:25:43;2.80;;;2.28;;
61915;SDS011;47868;51.326;6.550;2023-05-07T09:28:09;2.55;;;2.20;;
61915;SDS011;47868;51.326;6.550;2023-05-07T09:30:36;2.03;;;1.83;;
61915;SDS011;47868;51.326;6.550;2023-05-07T09:33:03;5.95;;;2.25;;
61915;SDS011;47868;51.326;6.550;2023-05-07T09:35:29;4.00;;;1.85;;
61915;SDS011;47868;51.326;6.550;2023-05-07T09:37:56;4.03;;;1.88;;
61915;SDS011;47868;51.326;6.550;2023-05-07T09:40:24;2.50;;;1.92;;
61915;SDS011;47868;51.326;6.550;2023-05-07T09:42:51;2.25;;;1.98;;
61915;SDS011;47868;51.326;6.550;2023-05-07T09:45:26;3.47;;;1.58;;
61915;SDS011;47868;51.326;6.550;2023-05-07T09:47:56;1.90;;;1.60;;
61915;SDS011;47868;51.326;6.550;2023-05-07T09:50:26;3.65;;;1.85;;
61915;SDS011;47868;51.326;6.550;2023-05-07T09:52:54;2.80;;;1.92;;
61915;SDS011;47868;51.326;6.550;2023-05-07T09:55:20;3.22;;;2.10;;
61915;SDS011;47868;51.326;6.550;2023-05-07T09:57:48;1.98;;;1.80;;
61915;SDS011;47868;51.326;6.550;2023-05-07T10:00:15;3.17;;;2.00;;
61915;SDS011;47868;51.326;6.550;2023-05-07T10:02:42;2.30;;;1.45;;
61915;SDS011;47868;51.326;6.550;2023-05-07T10:05:13;2.78;;;1.70;;
61915;SDS011;47868;51.326;6.550;2023-05-07T10:07:40;1.40;;;1.30;;
61915;SDS011;47868;51.326;6.550;2023-05-07T10:10:06;2.47;;;1.85;;
61915;SDS011;47868;51.326;6.550;2023-05-07T10:12:33;1.90;;;1.70;;
61915;SDS011;47868;51.326;6.550;2023-05-07T10:15:05;1.67;;;1.52;;
61915;SDS011;47868;51.326;6.550;2023-05-07T10:17:32;3.55;;;1.45;;
61915;SDS011;47868;51.326;6.550;2023-05-07T10:19:59;2.45;;;1.90;;
61915;SDS011;47868;51.326;6.550;2023-05-07T10:22:25;3.45;;;1.60;;
61915;SDS011;47868;51.326;6.550;2023-05-07T10:24:52;3.13;;;1.60;;
61915;SDS011;47868;51.326;6.550;2023-05-07T10:27:19;1.85;;;1.30;;
61915;SDS011;47868;51.326;6.550;2023-05-07T10:34:50;4.68;;;1.55;;
61915;SDS011;47868;51.326;6.550;2023-05-07T10:37:18;5.85;;;1.45;;
61915;SDS011;47868;51.326;6.550;2023-05-07T10:39:45;1.88;;;1.67;;
61915;SDS011;47868;51.326;6.550;2023-05-07T10:42:11;3.45;;;1.67;;
61915;SDS011;47868;51.326;6.550;2023-05-07T10:44:38;3.15;;;1.50;;
61915;SDS011;47868;51.326;6.550;2023-05-07T10:49:30;6.28;;;1.80;;
61915;SDS011;47868;51.326;6.550;2023-05-07T10:54:38;3.00;;;1.65;;
61915;SDS011;47868;51.326;6.550;2023-05-07T10:59:50;3.92;;;1.75;;
61915;SDS011;47868;51.326;6.550;2023-05-07T11:02:17;2.90;;;1.83;;
61915;SDS011;47868;51.326;6.550;2023-05-07T11:04:42;2.65;;;1.60;;
61915;SDS011;47868;51.326;6.550;2023-05-07T11:07:17;2.78;;;1.85;;
61915;SDS011;47868;51.326;6.550;2023-05-07T11:17:32;1.65;;;1.30;;
61915;SDS011;47868;51.326;6.550;2023-05-07T11:20:02;2.00;;;1.33;;
61915;SDS011;47868;51.326;6.550;2023-05-07T11:25:00;1.77;;;1.40;;
61915;SDS011;47868;51.326;6.550;2023-05-07T11:27:27;1.52;;;1.33;;
61915;SDS011;47868;51.326;6.550;2023-05-07T11:29:53;2.08;;;1.42;;
61915;SDS011;47868;51.326;6.550;2023-05-07T11:32:22;3.20;;;1.58;;
61915;SDS011;47868;51.326;6.550;2023-05-07T11:34:52;1.88;;;1.48;;
61915;SDS011;47868;51.326;6.550;2023-05-07T11:37:19;2.53;;;1.50;;
61915;SDS011;47868;51.326;6.550;2023-05-07T11:39:45;4.50;;;1.55;;
61915;SDS011;47868;51.326;6.550;2023-05-07T11:42:30;1.45;;;1.35;;
61915;SDS011;47868;51.326;6.550;2023-05-07T11:44:56;1.67;;;1.50;;
61915;SDS011;47868;51.326;6.550;2023-05-07T11:47:22;2.00;;;1.38;;
61915;SDS011;47868;51.326;6.550;2023-05-07T11:49:51;2.03;;;1.65;;
61915;SDS011;47868;51.326;6.550;2023-05-07T11:52:18;5.03;;;1.80;;
61915;SDS011;47868;51.326;6.550;2023-05-07T11:54:51;2.50;;;1.85;;
61915;SDS011;47868;51.326;6.550;2023-05-07T11:57:17;2.40;;;1.50;;
61915;SDS011;47868;51.326;6.550;2023-05-07T11:59:43;3.30;;;1.35;;
61915;SDS011;47868;51.326;6.550;2023-05-07T12:02:10;2.42;;;1.58;;
61915;SDS011;47868;51.326;6.550;2023-05-07T12:04:37;1.50;;;1.25;;
61915;SDS011;47868;51.326;6.550;2023-05-07T12:07:03;1.98;;;1.60;;
61915;SDS011;47868;51.326;6.550;2023-05-07T12:09:31;1.60;;;1.30;;
61915;SDS011;47868;51.326;6.550;2023-05-07T12:12:02;2.42;;;1.52;;
61915;SDS011;47868;51.326;6.550;2023-05-07T12:14:28;3.45;;;1.35;;
61915;SDS011;47868;51.326;6.550;2023-05-07T12:16:55;2.15;;;1.95;;
61915;SDS011;47868;51.326;6.550;2023-05-07T12:19:21;2.00;;;1.80;;
61915;SDS011;47868;51.326;6.550;2023-05-07T12:21:47;3.20;;;1.95;;
61915;SDS011;47868;51.326;6.550;2023-05-07T12:24:16;3.42;;;1.80;;
61915;SDS011;47868;51.326;6.550;2023-05-07T12:26:43;3.25;;;1.70;;
61915;SDS011;47868;51.326;6.550;2023-05-07T12:29:09;2.60;;;1.77;;
61915;SDS011;47868;51.326;6.550;2023-05-07T12:31:35;2.35;;;1.63;;
61915;SDS011;47868;51.326;6.550;2023-05-07T12:34:02;2.80;;;1.67;;
61915;SDS011;47868;51.326;6.550;2023-05-07T12:36:35;4.20;;;2.00;;
61915;SDS011;47868;51.326;6.550;2023-05-07T12:39:03;2.47;;;1.67;;
61915;SDS011;47868;51.326;6.550;2023-05-07T12:41:30;2.70;;;1.63;;
61915;SDS011;47868;51.326;6.550;2023-05-07T12:43:56;2.15;;;1.63;;
61915;SDS011;47868;51.326;6.550;2023-05-07T12:46:23;2.47;;;1.70;;
61915;SDS011;47868;51.326;6.550;2023-05-07T12:48:49;2.10;;;1.90;;
61915;SDS011;47868;51.326;6.550;2023-05-07T12:51:15;3.97;;;2.00;;
61915;SDS011;47868;51.326;6.550;2023-05-07T12:53:41;6.00;;;1.90;;
61915;SDS011;47868;51.326;6.550;2023-05-07T12:56:07;3.92;;;2.00;;
61915;SDS011;47868;51.326;6.550;2023-05-07T12:58:37;3.90;;;1.73;;
61915;SDS011;47868;51.326;6.550;2023-05-07T13:01:06;3.40;;;1.70;;
61915;SDS011;47868;51.326;6.550;2023-05-07T13:03:34;2.28;;;1.70;;
61915;SDS011;47868;51.326;6.550;2023-05-07T13:06:02;1.95;;;1.60;;
61915;SDS011;47868;51.326;6.550;2023-05-07T13:08:38;2.13;;;1.80;;
61915;SDS011;47868;51.326;6.550;2023-05-07T13:11:10;4.40;;;1.85;;
61915;SDS011;47868;51.326;6.550;2023-05-07T13:13:37;3.13;;;1.70;;
61915;SDS011;47868;51.326;6.550;2023-05-07T13:16:05;2.55;;;1.65;;
61915;SDS011;47868;51.326;6.550;2023-05-07T13:18:31;2.67;;;1.95;;
61915;SDS011;47868;51.326;6.550;2023-05-07T13:20:58;2.63;;;1.80;;
61915;SDS011;47868;51.326;6.550;2023-05-07T13:23:25;4.68;;;2.47;;
61915;SDS011;47868;51.326;6.550;2023-05-07T13:25:51;4.88;;;2.13;;
61915;SDS011;47868;51.326;6.550;2023-05-07T13:28:20;3.00;;;1.60;;
61915;SDS011;47868;51.326;6.550;2023-05-07T13:30:47;2.60;;;1.85;;
61915;SDS011;47868;51.326;6.550;2023-05-07T13:33:13;2.95;;;2.20;;
61915;SDS011;47868;51.326;6.550;2023-05-07T13:35:41;7.40;;;2.60;;
61915;SDS011;47868;51.326;6.550;2023-05-07T13:38:07;4.65;;;2.20;;
61915;SDS011;47868;51.326;6.550;2023-05-07T13:40:33;4.65;;;2.40;;
61915;SDS011;47868;51.326;6.550;2023-05-07T13:42:59;4.35;;;2.30;;
61915;SDS011;47868;51.326;6.550;2023-05-07T13:45:27;4.63;;;2.50;;
61915;SDS011;47868;51.326;6.550;2023-05-07T13:47:54;4.70;;;2.50;;
61915;SDS011;47868;51.326;6.550;2023-05-07T13:50:20;6.10;;;3.13;;
61915;SDS011;47868;51.326;6.550;2023-05-07T13:52:46;5.53;;;3.40;;
61915;SDS011;47868;51.326;6.550;2023-05-07T13:55:18;8.27;;;3.30;;
61915;SDS011;47868;51.326;6.550;2023-05-07T13:57:45;4.82;;;3.90;;
61915;SDS011;47868;51.326;6.550;2023-05-07T14:00:12;5.55;;;3.35;;
61915;SDS011;47868;51.326;6.550;2023-05-07T14:02:38;6.78;;;3.35;;
61915;SDS011;47868;51.326;6.550;2023-05-07T14:05:04;4.40;;;3.50;;
61915;SDS011;47868;51.326;6.550;2023-05-07T14:07:30;6.45;;;3.70;;
61915;SDS011;47868;51.326;6.550;2023-05-07T14:09:56;4.78;;;3.63;;
61915;SDS011;47868;51.326;6.550;2023-05-07T14:12:22;4.40;;;3.38;;
61915;SDS011;47868;51.326;6.550;2023-05-07T14:14:48;4.15;;;2.92;;
61915;SDS011;47868;51.326;6.550;2023-05-07T14:17:16;6.55;;;3.22;;
61915;SDS011;47868;51.326;6.550;2023-05-07T14:19:42;4.65;;;3.90;;
61915;SDS011;47868;51.326;6.550;2023-05-07T14:22:08;8.95;;;3.45;;
61915;SDS011;47868;51.326;6.550;2023-05-07T14:24:34;5.53;;;3.88;;
61915;SDS011;47868;51.326;6.550;2023-05-07T14:27:00;5.65;;;3.60;;
61915;SDS011;47868;51.326;6.550;2023-05-07T14:29:27;5.15;;;3.97;;
61915;SDS011;47868;51.326;6.550;2023-05-07T14:31:53;5.63;;;3.35;;
61915;SDS011;47868;51.326;6.550;2023-05-07T14:34:19;6.70;;;4.80;;
61915;SDS011;47868;51.326;6.550;2023-05-07T14:36:45;7.13;;;5.13;;
61915;SDS011;47868;51.326;6.550;2023-05-07T14:39:11;8.05;;;5.75;;
61915;SDS011;47868;51.326;6.550;2023-05-07T14:41:38;7.38;;;4.35;;
61915;SDS011;47868;51.326;6.550;2023-05-07T14:44:04;5.50;;;4.50;;
61915;SDS011;47868;51.326;6.550;2023-05-07T14:46:30;7.72;;;5.10;;
61915;SDS011;47868;51.326;6.550;2023-05-07T14:48:57;6.15;;;5.50;;
61915;SDS011;47868;51.326;6.550;2023-05-07T14:51:23;7.47;;;5.38;;
61915;SDS011;47868;51.326;6.550;2023-05-07T14:53:50;8.48;;;5.57;;
61915;SDS011;47868;51.326;6.550;2023-05-07T14:56:16;6.65;;;4.68;;
61915;SDS011;47868;51.326;6.550;2023-05-07T14:58:43;7.78;;;5.72;;
61915;SDS011;47868;51.326;6.550;2023-05-07T15:01:09;5.75;;;5.15;;
61915;SDS011;47868;51.326;6.550;2023-05-07T15:03:35;6.03;;;5.22;;
61915;SDS011;47868;51.326;6.550;2023-05-07T15:06:01;5.85;;;5.00;;
61915;SDS011;47868;51.326;6.550;2023-05-07T15:08:27;7.80;;;5.32;;